sensor_id;sensor_type;location;lat;lon;timestamp;P1;durP1;ratioP1;P2;durP2;ratioP2
41059;SDS011;26811;53.160;8.202;2022-09-13T00:03:46;63.83;;;28.02;;
41059;SDS011;26811;53.160;8.202;2022-09-13T00:08:47;60.08;;;29.00;;
41059;SDS011;26811;53.160;8.202;2022-09-13T00:13:48;66.80;;;29.70;;
41059;SDS011;26811;53.160;8.202;2022-09-13T00:18:49;64.70;;;30.60;;
41059;SDS011;26811;53.160;8.202;2022-09-13T00:23:51;69.93;;;32.15;;
41059;SDS011;26811;53.160;8.202;2022-09-13T00:33:57;75.68;;;31.52;;
41059;SDS011;26811;53.160;8.202;2022-09-13T00:38:59;76.85;;;33.35;;
41059;SDS011;26811;53.160;8.202;2022-09-13T00:44:00;74.93;;;32.97;;
41059;SDS011;26811;53.160;8.202;2022-09-13T00:49:04;78.13;;;33.85;;
41059;SDS011;26811;53.160;8.202;2022-09-13T00:54:21;78.70;;;33.92;;
41059;SDS011;26811;53.160;8.202;2022-09-13T00:59:26;77.63;;;35.33;;
41059;SDS011;26811;53.160;8.202;2022-09-13T01:04:32;79.30;;;35.05;;
41059;SDS011;26811;53.160;8.202;2022-09-13T01:09:36;76.70;;;35.17;;
41059;SDS011;26811;53.160;8.202;2022-09-13T01:14:39;81.13;;;34.72;;
41059;SDS011;26811;53.160;8.202;2022-09-13T01:25:34;82.93;;;35.50;;
41059;SDS011;26811;53.160;8.202;2022-09-13T01:46:18;88.60;;;35.42;;
41059;SDS011;26811;53.160;8.202;2022-09-13T01:56:28;76.22;;;32.85;;
41059;SDS011;26811;53.160;8.202;2022-09-13T02:01:46;77.97;;;32.50;;
41059;SDS011;26811;53.160;8.202;2022-09-13T02:07:06;74.88;;;32.05;;
41059;SDS011;26811;53.160;8.202;2022-09-13T02:12:15;77.53;;;31.10;;
41059;SDS011;26811;53.160;8.202;2022-09-13T02:17:20;70.78;;;29.67;;
41059;SDS011;26811;53.160;8.202;2022-09-13T02:22:31;72.55;;;30.13;;
41059;SDS011;26811;53.160;8.202;2022-09-13T02:27:38;74.78;;;29.77;;
41059;SDS011;26811;53.160;8.202;2022-09-13T02:32:44;73.25;;;29.65;;
41059;SDS011;26811;53.160;8.202;2022-09-13T02:37:57;73.72;;;30.60;;
41059;SDS011;26811;53.160;8.202;2022-09-13T02:43:04;85.15;;;31.17;;
41059;SDS011;26811;53.160;8.202;2022-09-13T02:48:19;81.65;;;33.60;;
41059;SDS011;26811;53.160;8.202;2022-09-13T02:53:51;80.30;;;31.95;;
41059;SDS011;26811;53.160;8.202;2022-09-13T03:04:29;83.47;;;32.00;;
41059;SDS011;26811;53.160;8.202;2022-09-13T03:09:30;86.70;;;32.47;;
41059;SDS011;26811;53.160;8.202;2022-09-13T03:25:51;83.75;;;31.73;;
41059;SDS011;26811;53.160;8.202;2022-09-13T03:31:06;80.57;;;30.48;;
41059;SDS011;26811;53.160;8.202;2022-09-13T03:36:19;87.25;;;31.70;;
41059;SDS011;26811;53.160;8.202;2022-09-13T03:41:35;81.13;;;32.45;;
41059;SDS011;26811;53.160;8.202;2022-09-13T03:46:43;85.05;;;31.17;;
41059;SDS011;26811;53.160;8.202;2022-09-13T03:51:46;85.93;;;31.65;;
41059;SDS011;26811;53.160;8.202;2022-09-13T04:02:13;84.53;;;33.03;;
41059;SDS011;26811;53.160;8.202;2022-09-13T04:07:16;93.32;;;35.03;;
41059;SDS011;26811;53.160;8.202;2022-09-13T04:12:19;88.35;;;33.65;;
41059;SDS011;26811;53.160;8.202;2022-09-13T04:17:19;85.07;;;33.67;;
41059;SDS011;26811;53.160;8.202;2022-09-13T04:22:20;103.78;;;37.55;;
41059;SDS011;26811;53.160;8.202;2022-09-13T04:27:20;101.55;;;36.20;;
41059;SDS011;26811;53.160;8.202;2022-09-13T04:32:21;98.10;;;36.42;;
41059;SDS011;26811;53.160;8.202;2022-09-13T04:37:22;104.43;;;36.25;;
41059;SDS011;26811;53.160;8.202;2022-09-13T04:42:22;103.53;;;37.97;;
41059;SDS011;26811;53.160;8.202;2022-09-13T04:47:23;108.63;;;38.55;;
41059;SDS011;26811;53.160;8.202;2022-09-13T04:52:23;118.72;;;40.65;;
41059;SDS011;26811;53.160;8.202;2022-09-13T04:57:24;120.28;;;39.53;;
41059;SDS011;26811;53.160;8.202;2022-09-13T05:02:25;108.00;;;38.38;;
41059;SDS011;26811;53.160;8.202;2022-09-13T05:07:25;101.32;;;36.30;;
41059;SDS011;26811;53.160;8.202;2022-09-13T05:12:26;106.80;;;38.47;;
41059;SDS011;26811;53.160;8.202;2022-09-13T05:17:28;109.55;;;38.50;;
41059;SDS011;26811;53.160;8.202;2022-09-13T05:22:29;109.03;;;39.05;;
41059;SDS011;26811;53.160;8.202;2022-09-13T05:27:29;111.15;;;39.33;;
41059;SDS011;26811;53.160;8.202;2022-09-13T05:32:30;93.60;;;34.83;;
41059;SDS011;26811;53.160;8.202;2022-09-13T05:37:31;103.13;;;34.58;;
41059;SDS011;26811;53.160;8.202;2022-09-13T05:42:31;89.70;;;31.85;;
41059;SDS011;26811;53.160;8.202;2022-09-13T05:47:32;90.35;;;31.90;;
41059;SDS011;26811;53.160;8.202;2022-09-13T05:52:32;96.10;;;31.48;;
41059;SDS011;26811;53.160;8.202;2022-09-13T05:57:33;91.90;;;32.55;;
41059;SDS011;26811;53.160;8.202;2022-09-13T06:02:35;91.15;;;33.58;;
41059;SDS011;26811;53.160;8.202;2022-09-13T06:07:35;98.18;;;35.50;;
41059;SDS011;26811;53.160;8.202;2022-09-13T06:12:38;98.95;;;36.72;;
41059;SDS011;26811;53.160;8.202;2022-09-13T06:17:39;103.45;;;37.90;;
41059;SDS011;26811;53.160;8.202;2022-09-13T06:22:39;109.15;;;38.67;;
41059;SDS011;26811;53.160;8.202;2022-09-13T06:27:40;100.70;;;37.70;;
41059;SDS011;26811;53.160;8.202;2022-09-13T06:32:41;119.50;;;37.78;;
41059;SDS011;26811;53.160;8.202;2022-09-13T06:37:41;114.28;;;38.67;;
41059;SDS011;26811;53.160;8.202;2022-09-13T06:42:42;102.60;;;36.55;;
41059;SDS011;26811;53.160;8.202;2022-09-13T06:47:43;95.10;;;36.40;;
41059;SDS011;26811;53.160;8.202;2022-09-13T06:52:44;107.22;;;37.67;;
41059;SDS011;26811;53.160;8.202;2022-09-13T06:57:44;96.93;;;36.13;;
41059;SDS011;26811;53.160;8.202;2022-09-13T07:02:49;104.25;;;37.00;;
41059;SDS011;26811;53.160;8.202;2022-09-13T07:07:50;102.25;;;37.40;;
41059;SDS011;26811;53.160;8.202;2022-09-13T07:12:50;99.80;;;36.22;;
41059;SDS011;26811;53.160;8.202;2022-09-13T07:17:51;90.28;;;34.72;;
41059;SDS011;26811;53.160;8.202;2022-09-13T07:22:51;87.47;;;33.65;;
41059;SDS011;26811;53.160;8.202;2022-09-13T07:27:52;75.07;;;30.02;;
41059;SDS011;26811;53.160;8.202;2022-09-13T07:32:52;70.00;;;29.15;;
41059;SDS011;26811;53.160;8.202;2022-09-13T07:37:54;63.58;;;25.55;;
41059;SDS011;26811;53.160;8.202;2022-09-13T07:42:54;57.65;;;20.23;;
41059;SDS011;26811;53.160;8.202;2022-09-13T07:47:55;38.67;;;14.38;;
41059;SDS011;26811;53.160;8.202;2022-09-13T07:52:55;34.60;;;12.07;;
41059;SDS011;26811;53.160;8.202;2022-09-13T07:57:56;27.70;;;9.15;;
41059;SDS011;26811;53.160;8.202;2022-09-13T08:02:58;24.85;;;8.80;;
41059;SDS011;26811;53.160;8.202;2022-09-13T08:07:58;25.15;;;7.10;;
41059;SDS011;26811;53.160;8.202;2022-09-13T08:12:59;18.98;;;5.97;;
41059;SDS011;26811;53.160;8.202;2022-09-13T08:18:00;18.33;;;5.20;;
41059;SDS011;26811;53.160;8.202;2022-09-13T08:23:00;16.48;;;4.55;;
41059;SDS011;26811;53.160;8.202;2022-09-13T08:28:04;17.05;;;4.35;;
41059;SDS011;26811;53.160;8.202;2022-09-13T08:33:06;17.08;;;4.40;;
41059;SDS011;26811;53.160;8.202;2022-09-13T08:38:07;14.07;;;3.38;;
41059;SDS011;26811;53.160;8.202;2022-09-13T08:43:16;16.05;;;2.95;;
41059;SDS011;26811;53.160;8.202;2022-09-13T08:48:38;11.98;;;2.90;;
41059;SDS011;26811;53.160;8.202;2022-09-13T08:53:43;22.75;;;3.00;;
41059;SDS011;26811;53.160;8.202;2022-09-13T08:58:51;15.68;;;2.95;;
41059;SDS011;26811;53.160;8.202;2022-09-13T09:04:03;18.42;;;2.50;;
41059;SDS011;26811;53.160;8.202;2022-09-13T09:09:15;12.73;;;2.85;;
41059;SDS011;26811;53.160;8.202;2022-09-13T09:14:34;14.77;;;2.80;;
41059;SDS011;26811;53.160;8.202;2022-09-13T09:19:41;12.52;;;2.65;;
41059;SDS011;26811;53.160;8.202;2022-09-13T09:24:46;20.08;;;2.40;;
41059;SDS011;26811;53.160;8.202;2022-09-13T09:29:50;14.52;;;2.33;;
41059;SDS011;26811;53.160;8.202;2022-09-13T09:40:10;14.90;;;2.17;;
41059;SDS011;26811;53.160;8.202;2022-09-13T09:45:26;11.10;;;1.95;;
41059;SDS011;26811;53.160;8.202;2022-09-13T09:50:35;18.98;;;1.90;;
41059;SDS011;26811;53.160;8.202;2022-09-13T09:55:49;18.90;;;2.40;;
41059;SDS011;26811;53.160;8.202;2022-09-13T10:00:56;14.90;;;1.63;;
41059;SDS011;26811;53.160;8.202;2022-09-13T10:06:04;7.70;;;1.42;;
41059;SDS011;26811;53.160;8.202;2022-09-13T10:11:07;15.65;;;1.85;;
41059;SDS011;26811;53.160;8.202;2022-09-13T10:16:26;12.52;;;1.67;;
41059;SDS011;26811;53.160;8.202;2022-09-13T10:21:28;14.35;;;1.50;;
41059;SDS011;26811;53.160;8.202;2022-09-13T10:26:29;14.73;;;1.95;;
41059;SDS011;26811;53.160;8.202;2022-09-13T10:31:33;14.00;;;1.83;;
41059;SDS011;26811;53.160;8.202;2022-09-13T10:36:36;11.88;;;1.70;;
41059;SDS011;26811;53.160;8.202;2022-09-13T10:41:47;11.77;;;1.80;;
41059;SDS011;26811;53.160;8.202;2022-09-13T10:47:05;12.48;;;1.60;;
41059;SDS011;26811;53.160;8.202;2022-09-13T10:57:30;16.25;;;1.50;;
41059;SDS011;26811;53.160;8.202;2022-09-13T11:13:45;10.68;;;1.60;;
41059;SDS011;26811;53.160;8.202;2022-09-13T11:19:07;12.02;;;1.83;;
41059;SDS011;26811;53.160;8.202;2022-09-13T11:40:27;22.10;;;1.90;;
41059;SDS011;26811;53.160;8.202;2022-09-13T11:56:23;16.50;;;1.52;;
41059;SDS011;26811;53.160;8.202;2022-09-13T12:01:38;8.43;;;1.55;;
41059;SDS011;26811;53.160;8.202;2022-09-13T12:06:47;9.98;;;1.63;;
41059;SDS011;26811;53.160;8.202;2022-09-13T12:12:04;10.40;;;1.50;;
41059;SDS011;26811;53.160;8.202;2022-09-13T12:17:25;7.53;;;1.42;;
41059;SDS011;26811;53.160;8.202;2022-09-13T12:22:38;9.98;;;1.45;;
41059;SDS011;26811;53.160;8.202;2022-09-13T12:27:42;13.40;;;1.48;;
41059;SDS011;26811;53.160;8.202;2022-09-13T12:32:50;14.88;;;2.00;;
41059;SDS011;26811;53.160;8.202;2022-09-13T13:10:05;14.70;;;1.80;;
41059;SDS011;26811;53.160;8.202;2022-09-13T13:36:25;8.50;;;1.55;;
41059;SDS011;26811;53.160;8.202;2022-09-13T13:46:37;5.18;;;1.15;;
41059;SDS011;26811;53.160;8.202;2022-09-13T13:51:37;12.38;;;1.58;;
41059;SDS011;26811;53.160;8.202;2022-09-13T13:56:48;7.32;;;1.25;;
41059;SDS011;26811;53.160;8.202;2022-09-13T14:01:50;9.50;;;1.75;;
41059;SDS011;26811;53.160;8.202;2022-09-13T14:22:30;15.10;;;1.90;;
41059;SDS011;26811;53.160;8.202;2022-09-13T14:27:34;11.63;;;2.30;;
41059;SDS011;26811;53.160;8.202;2022-09-13T14:32:40;10.98;;;2.10;;
41059;SDS011;26811;53.160;8.202;2022-09-13T14:37:43;12.68;;;2.10;;
41059;SDS011;26811;53.160;8.202;2022-09-13T14:42:47;13.38;;;2.00;;
41059;SDS011;26811;53.160;8.202;2022-09-13T14:47:51;17.73;;;2.08;;
41059;SDS011;26811;53.160;8.202;2022-09-13T14:53:15;17.05;;;1.98;;
41059;SDS011;26811;53.160;8.202;2022-09-13T14:58:24;13.90;;;1.97;;
41059;SDS011;26811;53.160;8.202;2022-09-13T15:03:28;14.90;;;2.15;;
41059;SDS011;26811;53.160;8.202;2022-09-13T15:13:32;19.95;;;2.05;;
41059;SDS011;26811;53.160;8.202;2022-09-13T15:18:33;8.75;;;1.70;;
41059;SDS011;26811;53.160;8.202;2022-09-13T15:23:35;15.73;;;1.83;;
41059;SDS011;26811;53.160;8.202;2022-09-13T15:28:48;12.02;;;2.00;;
41059;SDS011;26811;53.160;8.202;2022-09-13T15:34:09;22.27;;;2.30;;
41059;SDS011;26811;53.160;8.202;2022-09-13T15:39:19;13.02;;;2.00;;
41059;SDS011;26811;53.160;8.202;2022-09-13T15:44:20;9.43;;;1.65;;
41059;SDS011;26811;53.160;8.202;2022-09-13T15:49:23;16.00;;;2.38;;
41059;SDS011;26811;53.160;8.202;2022-09-13T15:54:36;14.35;;;1.92;;
41059;SDS011;26811;53.160;8.202;2022-09-13T15:59:39;18.45;;;1.90;;
41059;SDS011;26811;53.160;8.202;2022-09-13T16:04:40;15.15;;;2.05;;
41059;SDS011;26811;53.160;8.202;2022-09-13T16:09:41;16.55;;;2.05;;
41059;SDS011;26811;53.160;8.202;2022-09-13T16:14:42;16.25;;;1.80;;
41059;SDS011;26811;53.160;8.202;2022-09-13T16:19:42;13.70;;;1.98;;
41059;SDS011;26811;53.160;8.202;2022-09-13T16:24:43;16.40;;;2.08;;
41059;SDS011;26811;53.160;8.202;2022-09-13T16:29:44;17.23;;;1.58;;
41059;SDS011;26811;53.160;8.202;2022-09-13T16:34:45;11.32;;;1.77;;
41059;SDS011;26811;53.160;8.202;2022-09-13T16:39:46;16.25;;;1.70;;
41059;SDS011;26811;53.160;8.202;2022-09-13T16:44:47;14.90;;;1.80;;
41059;SDS011;26811;53.160;8.202;2022-09-13T16:49:47;14.93;;;2.25;;
41059;SDS011;26811;53.160;8.202;2022-09-13T16:54:48;14.75;;;1.80;;
41059;SDS011;26811;53.160;8.202;2022-09-13T16:59:50;12.73;;;1.65;;
41059;SDS011;26811;53.160;8.202;2022-09-13T17:04:51;16.45;;;2.00;;
41059;SDS011;26811;53.160;8.202;2022-09-13T17:09:52;11.15;;;1.70;;
41059;SDS011;26811;53.160;8.202;2022-09-13T17:14:53;11.20;;;1.65;;
41059;SDS011;26811;53.160;8.202;2022-09-13T17:19:54;14.70;;;1.77;;
41059;SDS011;26811;53.160;8.202;2022-09-13T17:24:55;12.60;;;2.15;;
41059;SDS011;26811;53.160;8.202;2022-09-13T17:29:55;11.60;;;1.63;;
41059;SDS011;26811;53.160;8.202;2022-09-13T17:34:56;9.40;;;1.70;;
41059;SDS011;26811;53.160;8.202;2022-09-13T17:39:56;14.35;;;1.85;;
41059;SDS011;26811;53.160;8.202;2022-09-13T17:44:57;10.35;;;2.55;;
41059;SDS011;26811;53.160;8.202;2022-09-13T17:49:58;7.47;;;1.63;;
41059;SDS011;26811;53.160;8.202;2022-09-13T17:54:58;12.43;;;1.90;;
41059;SDS011;26811;53.160;8.202;2022-09-13T17:59:59;14.48;;;1.80;;
41059;SDS011;26811;53.160;8.202;2022-09-13T18:05:00;13.27;;;1.75;;
41059;SDS011;26811;53.160;8.202;2022-09-13T18:10:00;10.27;;;1.95;;
41059;SDS011;26811;53.160;8.202;2022-09-13T18:15:04;13.30;;;1.90;;
41059;SDS011;26811;53.160;8.202;2022-09-13T18:20:06;8.68;;;2.22;;
41059;SDS011;26811;53.160;8.202;2022-09-13T18:25:06;11.45;;;2.20;;
41059;SDS011;26811;53.160;8.202;2022-09-13T18:30:07;19.98;;;1.95;;
41059;SDS011;26811;53.160;8.202;2022-09-13T18:35:08;13.45;;;2.10;;
41059;SDS011;26811;53.160;8.202;2022-09-13T18:40:09;9.85;;;2.15;;
41059;SDS011;26811;53.160;8.202;2022-09-13T18:45:12;17.65;;;2.67;;
41059;SDS011;26811;53.160;8.202;2022-09-13T18:50:13;10.95;;;2.45;;
41059;SDS011;26811;53.160;8.202;2022-09-13T18:55:14;15.75;;;2.70;;
41059;SDS011;26811;53.160;8.202;2022-09-13T19:00:14;12.90;;;2.67;;
41059;SDS011;26811;53.160;8.202;2022-09-13T19:05:15;12.70;;;2.50;;
41059;SDS011;26811;53.160;8.202;2022-09-13T19:10:18;13.00;;;2.72;;
41059;SDS011;26811;53.160;8.202;2022-09-13T19:15:19;15.57;;;2.22;;
41059;SDS011;26811;53.160;8.202;2022-09-13T19:20:19;12.10;;;2.10;;
41059;SDS011;26811;53.160;8.202;2022-09-13T19:25:21;12.45;;;2.20;;
41059;SDS011;26811;53.160;8.202;2022-09-13T19:30:26;11.85;;;2.00;;
41059;SDS011;26811;53.160;8.202;2022-09-13T19:35:27;14.23;;;2.38;;
41059;SDS011;26811;53.160;8.202;2022-09-13T19:40:27;12.50;;;1.98;;
41059;SDS011;26811;53.160;8.202;2022-09-13T19:45:28;15.73;;;2.35;;
41059;SDS011;26811;53.160;8.202;2022-09-13T19:50:28;19.20;;;2.28;;
41059;SDS011;26811;53.160;8.202;2022-09-13T19:55:29;13.40;;;2.72;;
41059;SDS011;26811;53.160;8.202;2022-09-13T20:00:31;17.00;;;3.88;;
41059;SDS011;26811;53.160;8.202;2022-09-13T20:05:33;13.27;;;2.50;;
41059;SDS011;26811;53.160;8.202;2022-09-13T20:10:35;8.55;;;2.25;;
41059;SDS011;26811;53.160;8.202;2022-09-13T20:15:37;14.60;;;2.70;;
41059;SDS011;26811;53.160;8.202;2022-09-13T20:20:37;10.52;;;2.85;;
41059;SDS011;26811;53.160;8.202;2022-09-13T20:25:40;16.92;;;2.63;;
41059;SDS011;26811;53.160;8.202;2022-09-13T20:30:42;10.33;;;2.87;;
41059;SDS011;26811;53.160;8.202;2022-09-13T20:35:51;11.00;;;2.00;;
41059;SDS011;26811;53.160;8.202;2022-09-13T20:40:52;13.32;;;2.88;;
41059;SDS011;26811;53.160;8.202;2022-09-13T20:45:53;13.60;;;2.20;;
41059;SDS011;26811;53.160;8.202;2022-09-13T20:50:58;11.85;;;2.17;;
41059;SDS011;26811;53.160;8.202;2022-09-13T20:56:04;11.82;;;2.60;;
41059;SDS011;26811;53.160;8.202;2022-09-13T21:06:19;8.52;;;2.80;;
41059;SDS011;26811;53.160;8.202;2022-09-13T21:11:22;14.68;;;2.65;;
41059;SDS011;26811;53.160;8.202;2022-09-13T21:16:33;10.88;;;2.15;;
41059;SDS011;26811;53.160;8.202;2022-09-13T21:21:37;11.73;;;2.78;;
41059;SDS011;26811;53.160;8.202;2022-09-13T21:31:41;13.07;;;3.33;;
41059;SDS011;26811;53.160;8.202;2022-09-13T21:36:42;11.85;;;2.58;;
41059;SDS011;26811;53.160;8.202;2022-09-13T21:41:43;11.90;;;2.30;;
41059;SDS011;26811;53.160;8.202;2022-09-13T21:46:45;18.77;;;2.90;;
41059;SDS011;26811;53.160;8.202;2022-09-13T21:51:46;8.48;;;2.47;;
41059;SDS011;26811;53.160;8.202;2022-09-13T21:56:51;18.90;;;2.90;;
41059;SDS011;26811;53.160;8.202;2022-09-13T22:01:53;10.60;;;2.95;;
41059;SDS011;26811;53.160;8.202;2022-09-13T22:06:53;15.68;;;2.90;;
41059;SDS011;26811;53.160;8.202;2022-09-13T22:11:54;13.65;;;3.33;;
41059;SDS011;26811;53.160;8.202;2022-09-13T22:16:55;12.30;;;2.85;;
41059;SDS011;26811;53.160;8.202;2022-09-13T22:21:57;17.00;;;3.08;;
41059;SDS011;26811;53.160;8.202;2022-09-13T22:26:58;17.23;;;3.80;;
41059;SDS011;26811;53.160;8.202;2022-09-13T22:32:00;10.95;;;3.33;;
41059;SDS011;26811;53.160;8.202;2022-09-13T22:37:00;11.98;;;4.25;;
41059;SDS011;26811;53.160;8.202;2022-09-13T22:42:02;13.80;;;4.38;;
41059;SDS011;26811;53.160;8.202;2022-09-13T22:47:03;16.00;;;3.85;;
41059;SDS011;26811;53.160;8.202;2022-09-13T22:52:03;15.40;;;4.35;;
41059;SDS011;26811;53.160;8.202;2022-09-13T22:57:04;17.23;;;4.22;;
41059;SDS011;26811;53.160;8.202;2022-09-13T23:02:04;15.82;;;3.80;;
41059;SDS011;26811;53.160;8.202;2022-09-13T23:07:05;15.98;;;4.13;;
41059;SDS011;26811;53.160;8.202;2022-09-13T23:12:06;15.55;;;3.65;;
41059;SDS011;26811;53.160;8.202;2022-09-13T23:17:06;16.20;;;3.50;;
41059;SDS011;26811;53.160;8.202;2022-09-13T23:22:07;15.93;;;4.30;;
41059;SDS011;26811;53.160;8.202;2022-09-13T23:27:07;16.42;;;3.92;;
41059;SDS011;26811;53.160;8.202;2022-09-13T23:32:08;12.75;;;3.85;;
41059;SDS011;26811;53.160;8.202;2022-09-13T23:37:09;15.82;;;4.10;;
41059;SDS011;26811;53.160;8.202;2022-09-13T23:42:10;18.17;;;4.47;;
41059;SDS011;26811;53.160;8.202;2022-09-13T23:47:10;16.80;;;4.75;;
41059;SDS011;26811;53.160;8.202;2022-09-13T23:52:11;22.45;;;4.72;;
41059;SDS011;26811;53.160;8.202;2022-09-13T23:57:12;17.98;;;4.97;;
